Ana Sayfa
METAR-TAF:

METAR-TAF

Havaalanları :

Hattiesburg-Laurel Regional Airport

Hattiesburg / Laurel, Mississipi, Amerika Birleşik Devletleri

Enlem: 31-28N, Boylam: 089-20W, yükseklik: 91 m

Güncel hava durumu gözlemi

Rapor saat 16:56 UTC de 1 saat ve 16 dakika önce yapıldı.
Sakin rüzgar
Sıcaklık 34°C
Nem 56%
Basınç 1016 hPa
Görüş mesafesi: 16.1 km
Açık gökyüzü

METAR: KPIB 251656Z AUTO 00000KT 10SM CLR 34/24 A3000 RMK AO2 SLP153 T03440244 PNO $

Saat: 13:12 (18:12 UTC)

Tahmin

Rapor saat 17:34 UTC de 38 dakika önce yapıldı.
Ayın 25'si saat 18 UTC'den ayın 26'si saat 18 UTC'ye kadar geçerli Tahmin
Rüzgar batıdan 4 kt
Görüş mesafesi: 10 km
5000 ft yükseklikte parçalı çok bulutlu

TAF: KPIB 251734Z 2518/2618 27004KT P6SM BKN050

4.000'den fazla havaalanı için hava durumu gözlemleri ve tahminleri (METAR ve TAF raporları).

Kullanılabilir istasyonlar harita üzerinde sarı ve kırmızı noktalarla gösterilir.

İstasyonun adını görmek için fareyi noktanın üzerinde gezdirin.

Sonrasında hava gözlem ve tahminlerini görmek için tıklayın.

Haritayı değiştirmek için: yaklaştırmak için siyah artı işaretli yeşil düğmeye ve uzaklaştırmak için de eksi işaretli düğmeye hızla tıklayın; bitişik haritalar için yeşil okları kullanın.


METAR-TAF: